Time;durP1;ratioP1;P1;durP2;ratioP2;P2;SDS_P1;SDS_P2;PMS_P1;PMS_P2;Temp;Humidity;BMP_temperature;BMP_pressure;BME280_temperature;BME280_humidity;BME280_pressure;Samples;Min_cycle;Max_cycle;Signal;HPM_P1;HPM_P2
2023/10/29 02:41:03;;;;;;;1999.90;999.90;;;;;;;;;;5398646;23;20245;-67
2023/10/29 02:43:48;;;;;;;1999.90;999.90;;;;;;;;;;4942756;29;20207;-68
2023/10/29 02:46:33;;;;;;;1999.90;999.90;;;;;;;;;;4950240;29;20215;-67
2023/10/29 02:49:17;;;;;;;1999.90;999.90;;;;;;;;;;4954336;29;20723;-67
2023/10/29 02:52:02;;;;;;;1999.90;999.90;;;;;;;;;;4935321;29;20216;-67
2023/10/29 02:54:48;;;;;;;1999.90;999.90;;;;;;;;;;4934962;29;20232;-67
2023/10/29 02:57:34;;;;;;;1999.90;999.90;;;;;;;;;;4935445;29;20689;-68
2023/10/29 03:00:19;;;;;;;1999.90;999.90;;;;;;;;;;4934861;29;20235;-67
2023/10/29 03:03:04;;;;;;;1999.90;999.90;;;;;;;;;;4935251;29;20209;-67
2023/10/29 03:05:49;;;;;;;1999.90;999.90;;;;;;;;;;4934847;29;20299;-67
2023/10/29 03:08:34;;;;;;;1999.90;999.90;;;;;;;;;;4935198;29;20212;-67
2023/10/29 03:11:19;;;;;;;1999.90;999.90;;;;;;;;;;4934994;29;20232;-67
2023/10/29 03:14:05;;;;;;;1999.90;999.90;;;;;;;;;;4935043;29;20625;-68
2023/10/29 03:16:50;;;;;;;1999.90;999.90;;;;;;;;;;4934739;29;20223;-68
2023/10/29 03:19:35;;;;;;;1999.90;999.90;;;;;;;;;;4934630;29;20755;-68
2023/10/29 03:22:20;;;;;;;1999.90;999.90;;;;;;;;;;4934947;29;20256;-68
2023/10/29 03:25:05;;;;;;;1999.90;999.90;;;;;;;;;;4933370;29;25087;-67
2023/10/29 03:27:50;;;;;;;1999.90;999.90;;;;;;;;;;4934638;29;20300;-67
2023/10/29 03:30:36;;;;;;;1999.90;999.90;;;;;;;;;;4934789;29;20236;-67
2023/10/29 03:33:21;;;;;;;1999.90;999.90;;;;;;;;;;4934690;29;20231;-67
2023/10/29 03:36:07;;;;;;;1999.90;999.90;;;;;;;;;;4934777;29;20210;-68
2023/10/29 03:38:52;;;;;;;1999.90;999.90;;;;;;;;;;4934784;29;20272;-67
2023/10/29 03:41:37;;;;;;;1999.90;999.90;;;;;;;;;;4934625;29;20728;-68
2023/10/29 03:44:22;;;;;;;1999.90;999.90;;;;;;;;;;4934880;29;20215;-67
2023/10/29 03:47:08;;;;;;;1999.90;999.90;;;;;;;;;;4933482;29;20407;-67
2023/10/29 03:49:53;;;;;;;1999.90;999.90;;;;;;;;;;4934520;29;20606;-67
2023/10/29 03:52:38;;;;;;;1999.90;999.90;;;;;;;;;;4938878;29;20211;-67
2023/10/29 03:55:23;;;;;;;1999.90;999.90;;;;;;;;;;4938685;29;20204;-67
2023/10/29 03:58:08;;;;;;;1999.90;999.90;;;;;;;;;;4938468;29;20321;-68
2023/10/29 04:00:53;;;;;;;1999.90;999.90;;;;;;;;;;4937967;29;20333;-68
2023/10/29 04:03:39;;;;;;;1999.90;999.90;;;;;;;;;;4938443;29;20238;-67
2023/10/29 04:06:24;;;;;;;1999.90;999.90;;;;;;;;;;4938377;29;20211;-67
2023/10/29 04:09:10;;;;;;;1999.90;999.90;;;;;;;;;;4937847;29;20232;-67
2023/10/29 04:11:55;;;;;;;1999.90;999.90;;;;;;;;;;4938150;29;20572;-67
2023/10/29 04:14:42;;;;;;;1999.90;999.90;;;;;;;;;;4937841;29;20259;-67
2023/10/29 04:17:27;;;;;;;1999.90;999.90;;;;;;;;;;4938041;29;20214;-67
2023/10/29 04:20:13;;;;;;;1999.90;999.90;;;;;;;;;;4937819;29;20231;-68
2023/10/29 04:22:58;;;;;;;1999.90;999.90;;;;;;;;;;4938245;29;20223;-67
2023/10/29 04:25:44;;;;;;;1999.90;999.90;;;;;;;;;;4937938;29;20683;-67
2023/10/29 04:28:28;;;;;;;1999.90;999.90;;;;;;;;;;4937963;29;20216;-67
2023/10/29 04:31:13;;;;;;;1999.90;999.90;;;;;;;;;;4937811;29;20352;-68
2023/10/29 04:33:58;;;;;;;1999.90;999.90;;;;;;;;;;4937495;29;20233;-68
2023/10/29 04:36:48;;;;;;;1999.90;999.90;;;;;;;;;;4937789;29;20211;-67
2023/10/29 04:39:33;;;;;;;1999.90;999.90;;;;;;;;;;4937728;29;20203;-68
2023/10/29 04:42:18;;;;;;;1999.90;999.90;;;;;;;;;;4938140;29;20267;-68
2023/10/29 04:45:03;;;;;;;1999.90;999.90;;;;;;;;;;4937672;29;20208;-67
2023/10/29 04:47:48;;;;;;;1999.90;999.90;;;;;;;;;;4937621;29;20825;-68
2023/10/29 04:50:33;;;;;;;1999.90;999.90;;;;;;;;;;4937229;29;20529;-67
2023/10/29 04:53:19;;;;;;;1999.90;999.90;;;;;;;;;;4937434;29;20213;-67
2023/10/29 04:56:04;;;;;;;1999.90;999.90;;;;;;;;;;4937658;29;20231;-68
2023/10/29 04:58:49;;;;;;;1999.90;999.90;;;;;;;;;;4937226;29;20292;-67
2023/10/29 05:01:34;;;;;;;1999.90;999.90;;;;;;;;;;4937291;29;20719;-68
2023/10/29 05:04:19;;;;;;;1999.90;999.90;;;;;;;;;;4937069;29;20760;-67
2023/10/29 05:07:04;;;;;;;1999.90;999.90;;;;;;;;;;4936823;29;20501;-67
2023/10/29 05:09:50;;;;;;;1999.90;999.90;;;;;;;;;;4936831;29;20235;-67
2023/10/29 05:12:35;;;;;;;1999.90;999.90;;;;;;;;;;4937102;29;20344;-67
2023/10/29 05:15:20;;;;;;;1999.90;999.90;;;;;;;;;;4936739;29;20615;-67
2023/10/29 05:18:05;;;;;;;1999.90;999.90;;;;;;;;;;4936754;29;20230;-68
2023/10/29 05:20:50;;;;;;;1999.90;999.90;;;;;;;;;;4936894;29;20235;-67
2023/10/29 05:23:35;;;;;;;1999.90;999.90;;;;;;;;;;4937019;29;20588;-67
2023/10/29 05:26:21;;;;;;;1999.90;999.90;;;;;;;;;;4936769;29;20586;-68
2023/10/29 05:29:07;;;;;;;1999.90;999.90;;;;;;;;;;4936505;29;20212;-67
2023/10/29 05:31:51;;;;;;;1999.90;999.90;;;;;;;;;;4936893;29;20220;-67
2023/10/29 05:34:36;;;;;;;1999.90;999.90;;;;;;;;;;4936387;29;20227;-66
2023/10/29 05:37:21;;;;;;;1999.90;999.90;;;;;;;;;;4936656;29;20215;-67
2023/10/29 05:40:09;;;;;;;1999.90;999.90;;;;;;;;;;4936246;29;20749;-67
2023/10/29 05:42:55;;;;;;;1999.90;999.90;;;;;;;;;;4936625;29;20202;-67
2023/10/29 05:45:40;;;;;;;1999.90;999.90;;;;;;;;;;4936318;29;20208;-67
2023/10/29 05:48:25;;;;;;;1999.90;999.90;;;;;;;;;;4936532;29;20204;-67
2023/10/29 05:51:12;;;;;;;1999.90;999.90;;;;;;;;;;4936805;29;20231;-68
2023/10/29 05:53:57;;;;;;;1999.90;999.90;;;;;;;;;;4936221;29;20234;-67
2023/10/29 05:56:42;;;;;;;1999.90;999.90;;;;;;;;;;4936147;29;20302;-67
2023/10/29 05:59:28;;;;;;;1999.90;999.90;;;;;;;;;;4935755;29;20215;-68
2023/10/29 06:02:14;;;;;;;1999.90;999.90;;;;;;;;;;4936197;29;20213;-67
2023/10/29 06:04:58;;;;;;;1999.90;999.90;;;;;;;;;;4935969;29;20421;-67
2023/10/29 06:07:44;;;;;;;1999.90;999.90;;;;;;;;;;4936120;29;20600;-66
2023/10/29 06:10:29;;;;;;;1999.90;999.90;;;;;;;;;;4935769;29;20233;-68
2023/10/29 06:13:14;;;;;;;1999.90;999.90;;;;;;;;;;4936026;29;20212;-67
2023/10/29 06:16:01;;;;;;;1999.90;999.90;;;;;;;;;;4935300;29;20212;-67
2023/10/29 06:18:46;;;;;;;1999.90;999.90;;;;;;;;;;4935793;29;20210;-67
2023/10/29 06:21:31;;;;;;;1999.90;999.90;;;;;;;;;;4928960;29;20254;-67
2023/10/29 06:24:16;;;;;;;1999.90;999.90;;;;;;;;;;4917393;29;20216;-67
2023/10/29 06:27:02;;;;;;;1999.90;999.90;;;;;;;;;;4924685;29;21071;-67
2023/10/29 06:29:47;;;;;;;1999.90;999.90;;;;;;;;;;4934928;29;20724;-67
2023/10/29 06:32:33;;;;;;;1999.90;999.90;;;;;;;;;;4935745;29;20233;-67
2023/10/29 06:35:18;;;;;;;1999.90;999.90;;;;;;;;;;4935378;29;20234;-67
2023/10/29 06:38:03;;;;;;;1999.90;999.90;;;;;;;;;;4935721;29;20586;-67
2023/10/29 06:40:48;;;;;;;1999.90;999.90;;;;;;;;;;4935297;29;20232;-67
2023/10/29 06:43:35;;;;;;;1999.90;999.90;;;;;;;;;;4935628;29;20216;-67
2023/10/29 06:46:20;;;;;;;1999.90;999.90;;;;;;;;;;4935548;29;20587;-67
2023/10/29 06:49:06;;;;;;;1999.90;999.90;;;;;;;;;;4935197;29;20596;-67
2023/10/29 06:51:52;;;;;;;1999.90;999.90;;;;;;;;;;4935340;29;20239;-67
2023/10/29 06:54:37;;;;;;;1999.90;999.90;;;;;;;;;;4935182;29;20231;-67
2023/10/29 06:57:22;;;;;;;1999.90;999.90;;;;;;;;;;4935502;29;20573;-67
2023/10/29 07:00:08;;;;;;;1999.90;999.90;;;;;;;;;;4934763;29;20226;-67
2023/10/29 07:02:52;;;;;;;1999.90;999.90;;;;;;;;;;4935461;29;20215;-66
2023/10/29 07:05:39;;;;;;;1999.90;999.90;;;;;;;;;;4935214;29;20228;-67
2023/10/29 07:08:25;;;;;;;1999.90;999.90;;;;;;;;;;4934861;29;20209;-67
2023/10/29 07:11:10;;;;;;;1999.90;999.90;;;;;;;;;;4934964;29;20315;-67
2023/10/29 07:13:55;;;;;;;1999.90;999.90;;;;;;;;;;4934993;29;20260;-67
2023/10/29 07:16:43;;;;;;;1999.90;999.90;;;;;;;;;;4918780;29;20221;-68
2023/10/29 07:19:28;;;;;;;1999.90;999.90;;;;;;;;;;4915209;29;20774;-67
2023/10/29 07:22:15;;;;;;;1999.90;999.90;;;;;;;;;;4923538;29;20218;-67
2023/10/29 07:25:00;;;;;;;1999.90;999.90;;;;;;;;;;4921201;29;20205;-67
2023/10/29 07:27:44;;;;;;;1999.90;999.90;;;;;;;;;;4914492;29;20412;-67
2023/10/29 07:30:30;;;;;;;1999.90;999.90;;;;;;;;;;4915058;29;20264;-67
2023/10/29 07:33:15;;;;;;;1999.90;999.90;;;;;;;;;;4915558;29;20602;-67
2023/10/29 07:36:02;;;;;;;1999.90;999.90;;;;;;;;;;4915356;29;20255;-67
2023/10/29 07:38:48;;;;;;;1999.90;999.90;;;;;;;;;;4912776;29;20242;-67
2023/10/29 07:41:33;;;;;;;1999.90;999.90;;;;;;;;;;4914459;29;20614;-67
2023/10/29 07:44:18;;;;;;;1999.90;999.90;;;;;;;;;;4915438;29;20220;-68
2023/10/29 07:47:08;;;;;;;1999.90;999.90;;;;;;;;;;4922835;29;20212;-66
2023/10/29 07:49:53;;;;;;;1999.90;999.90;;;;;;;;;;4909011;29;20826;-67
2023/10/29 07:52:39;;;;;;;1999.90;999.90;;;;;;;;;;4915661;29;20927;-67
2023/10/29 07:55:26;;;;;;;1999.90;999.90;;;;;;;;;;4915305;29;20278;-67
2023/10/29 07:58:11;;;;;;;1999.90;999.90;;;;;;;;;;4914375;29;20216;-68
2023/10/29 08:00:56;;;;;;;1999.90;999.90;;;;;;;;;;4923820;29;20243;-66
2023/10/29 08:03:40;;;;;;;1999.90;999.90;;;;;;;;;;4921878;29;20348;-68
2023/10/29 08:06:28;;;;;;;1999.90;999.90;;;;;;;;;;4924971;29;20682;-67
2023/10/29 08:09:13;;;;;;;1999.90;999.90;;;;;;;;;;4919777;29;20288;-67
2023/10/29 08:11:59;;;;;;;1999.90;999.90;;;;;;;;;;4914061;29;20716;-68
2023/10/29 08:14:44;;;;;;;1999.90;999.90;;;;;;;;;;4917375;29;20232;-67
2023/10/29 08:17:29;;;;;;;1999.90;999.90;;;;;;;;;;4922130;29;20751;-68
2023/10/29 08:20:14;;;;;;;1999.90;999.90;;;;;;;;;;4918824;29;20237;-68
2023/10/29 08:22:59;;;;;;;1999.90;999.90;;;;;;;;;;4921048;29;20209;-69
2023/10/29 08:25:44;;;;;;;1999.90;999.90;;;;;;;;;;4914908;29;20962;-69
2023/10/29 08:28:31;;;;;;;1999.90;999.90;;;;;;;;;;4917293;29;20226;-67
2023/10/29 08:31:16;;;;;;;1999.90;999.90;;;;;;;;;;4916950;29;20236;-67
2023/10/29 08:34:01;;;;;;;1999.90;999.90;;;;;;;;;;4920386;29;20216;-68
2023/10/29 08:36:46;;;;;;;1999.90;999.90;;;;;;;;;;4922987;29;20709;-67
2023/10/29 08:39:31;;;;;;;1999.90;999.90;;;;;;;;;;4919702;29;20258;-67
2023/10/29 08:42:16;;;;;;;1999.90;999.90;;;;;;;;;;4920189;29;20234;-67
2023/10/29 08:45:02;;;;;;;1999.90;999.90;;;;;;;;;;4924939;29;20209;-66
2023/10/29 08:47:47;;;;;;;1999.90;999.90;;;;;;;;;;4915486;29;20415;-66
2023/10/29 08:50:32;;;;;;;1999.90;999.90;;;;;;;;;;4925604;29;20330;-66
2023/10/29 08:53:17;;;;;;;1999.90;999.90;;;;;;;;;;4920157;29;20233;-67
2023/10/29 08:56:03;;;;;;;1999.90;999.90;;;;;;;;;;4926819;29;20233;-68
2023/10/29 08:58:47;;;;;;;1999.90;999.90;;;;;;;;;;4922401;29;20237;-68
2023/10/29 09:01:34;;;;;;;1999.90;999.90;;;;;;;;;;4920761;29;20242;-67
2023/10/29 09:04:20;;;;;;;1999.90;999.90;;;;;;;;;;4921335;29;20309;-66
2023/10/29 09:07:05;;;;;;;1999.90;999.90;;;;;;;;;;4920417;29;20357;-68
2023/10/29 09:09:50;;;;;;;1999.90;999.90;;;;;;;;;;4918378;29;20490;-66
2023/10/29 09:12:36;;;;;;;1999.90;999.90;;;;;;;;;;4923749;29;20253;-67
2023/10/29 09:15:21;;;;;;;1999.90;999.90;;;;;;;;;;4924181;29;20226;-66
2023/10/29 09:18:07;;;;;;;1999.90;999.90;;;;;;;;;;4918631;29;20718;-68
2023/10/29 09:20:52;;;;;;;1999.90;999.90;;;;;;;;;;4918475;29;20233;-68
2023/10/29 09:23:37;;;;;;;1999.90;999.90;;;;;;;;;;4924743;29;20228;-67
2023/10/29 09:26:22;;;;;;;1999.90;999.90;;;;;;;;;;4920503;29;20213;-68
2023/10/29 09:29:07;;;;;;;1999.90;999.90;;;;;;;;;;4918060;29;20254;-68
2023/10/29 09:31:53;;;;;;;1999.90;999.90;;;;;;;;;;4916108;29;20206;-68
2023/10/29 09:34:40;;;;;;;1999.90;999.90;;;;;;;;;;4925155;29;20220;-67
2023/10/29 09:37:25;;;;;;;1999.90;999.90;;;;;;;;;;4925706;29;20714;-68
2023/10/29 09:40:13;;;;;;;1999.90;999.90;;;;;;;;;;4922728;29;20252;-68
2023/10/29 09:43:03;;;;;;;1999.90;999.90;;;;;;;;;;4921834;29;20217;-68
2023/10/29 09:45:48;;;;;;;1999.90;999.90;;;;;;;;;;4928696;29;20702;-68
2023/10/29 09:48:34;;;;;;;1999.90;999.90;;;;;;;;;;4928135;29;20213;-68
2023/10/29 09:51:21;;;;;;;1999.90;999.90;;;;;;;;;;4924881;29;20233;-68
2023/10/29 09:54:07;;;;;;;1999.90;999.90;;;;;;;;;;4928661;29;20610;-68
2023/10/29 09:56:52;;;;;;;1999.90;999.90;;;;;;;;;;4917291;29;20238;-67
2023/10/29 09:59:37;;;;;;;1999.90;999.90;;;;;;;;;;4920332;29;20305;-68
2023/10/29 10:02:23;;;;;;;1999.90;999.90;;;;;;;;;;4922207;29;20214;-68
2023/10/29 10:05:09;;;;;;;1999.90;999.90;;;;;;;;;;4914397;29;20963;-67
2023/10/29 10:07:56;;;;;;;1999.90;999.90;;;;;;;;;;4918188;29;20762;-67
2023/10/29 10:10:42;;;;;;;1999.90;999.90;;;;;;;;;;4920226;29;20240;-67
2023/10/29 10:13:37;;;;;;;1999.90;999.90;;;;;;;;;;4915850;29;20237;-67
2023/10/29 10:16:22;;;;;;;1999.90;999.90;;;;;;;;;;4926611;29;20234;-68
2023/10/29 10:19:08;;;;;;;1999.90;999.90;;;;;;;;;;4924430;29;20593;-68
2023/10/29 10:21:52;;;;;;;1999.90;999.90;;;;;;;;;;4923293;29;20254;-68
2023/10/29 10:24:39;;;;;;;1999.90;999.90;;;;;;;;;;4921352;29;20221;-67
2023/10/29 10:27:24;;;;;;;1999.90;999.90;;;;;;;;;;4915204;29;20206;-67
2023/10/29 10:30:23;;;;;;;1999.90;999.90;;;;;;;;;;4919423;29;20484;-68
2023/10/29 10:33:10;;;;;;;1999.90;999.90;;;;;;;;;;4914576;29;20210;-67
2023/10/29 10:35:55;;;;;;;1999.90;999.90;;;;;;;;;;4914508;29;20601;-64
2023/10/29 10:38:51;;;;;;;1999.90;999.90;;;;;;;;;;4919502;29;20759;-67
2023/10/29 10:41:42;;;;;;;1999.90;999.90;;;;;;;;;;4922449;29;20241;-67
2023/10/29 10:44:29;;;;;;;1999.90;999.90;;;;;;;;;;4926671;29;20739;-68
2023/10/29 10:47:14;;;;;;;1999.90;999.90;;;;;;;;;;4913940;29;20246;-68
2023/10/29 10:49:59;;;;;;;1999.90;999.90;;;;;;;;;;4916804;29;20238;-68
2023/10/29 10:52:44;;;;;;;1999.90;999.90;;;;;;;;;;4915277;29;20214;-68
2023/10/29 10:55:29;;;;;;;1999.90;999.90;;;;;;;;;;4920863;29;20250;-69
2023/10/29 10:58:17;;;;;;;1999.90;999.90;;;;;;;;;;4918272;29;20210;-68
2023/10/29 11:01:03;;;;;;;1999.90;999.90;;;;;;;;;;4915585;29;20237;-68
2023/10/29 11:03:49;;;;;;;1999.90;999.90;;;;;;;;;;4918338;29;20597;-68
2023/10/29 11:06:34;;;;;;;1999.90;999.90;;;;;;;;;;4917640;29;20710;-68
2023/10/29 11:09:19;;;;;;;1999.90;999.90;;;;;;;;;;4923911;29;20330;-68
2023/10/29 11:12:05;;;;;;;1999.90;999.90;;;;;;;;;;4915079;29;20205;-68
2023/10/29 11:15:05;;;;;;;1999.90;999.90;;;;;;;;;;4923397;29;20702;-65
2023/10/29 11:17:52;;;;;;;1999.90;999.90;;;;;;;;;;4922078;29;20218;-67
2023/10/29 11:20:54;;;;;;;1999.90;999.90;;;;;;;;;;4914293;29;20329;-69
2023/10/29 11:23:39;;;;;;;1999.90;999.90;;;;;;;;;;4912992;29;20439;-66
2023/10/29 11:26:25;;;;;;;1999.90;999.90;;;;;;;;;;4919020;29;20248;-68
2023/10/29 11:29:30;;;;;;;1999.90;999.90;;;;;;;;;;4920383;29;20217;-68
2023/10/29 11:32:25;;;;;;;1999.90;999.90;;;;;;;;;;4918984;29;20257;-66
2023/10/29 11:35:22;;;;;;;1999.90;999.90;;;;;;;;;;4919570;29;20629;-67
2023/10/29 11:38:29;;;;;;;1999.90;999.90;;;;;;;;;;4917911;29;20210;-67
2023/10/29 11:41:29;;;;;;;1999.90;999.90;;;;;;;;;;4912590;29;20241;-66
2023/10/29 11:44:24;;;;;;;1999.90;999.90;;;;;;;;;;4920007;29;20326;-67
2023/10/29 11:47:11;;;;;;;1999.90;999.90;;;;;;;;;;4920824;29;20422;-67
2023/10/29 11:50:14;;;;;;;1999.90;999.90;;;;;;;;;;4919104;29;20233;-67
2023/10/29 11:53:00;;;;;;;1999.90;999.90;;;;;;;;;;4919854;29;20346;-67
2023/10/29 11:55:46;;;;;;;1999.90;999.90;;;;;;;;;;4916855;29;20226;-69
2023/10/29 11:58:31;;;;;;;1999.90;999.90;;;;;;;;;;4916237;29;20241;-66
2023/10/29 12:01:20;;;;;;;1999.90;999.90;;;;;;;;;;4916535;29;20329;-68
2023/10/29 12:04:05;;;;;;;1999.90;999.90;;;;;;;;;;4919327;29;20364;-69
2023/10/29 12:06:50;;;;;;;1999.90;999.90;;;;;;;;;;4915429;29;20705;-68
2023/10/29 12:09:37;;;;;;;1999.90;999.90;;;;;;;;;;4922747;29;20639;-68
2023/10/29 12:12:22;;;;;;;1999.90;999.90;;;;;;;;;;4921118;29;20218;-68
2023/10/29 12:15:13;;;;;;;1999.90;999.90;;;;;;;;;;4924568;29;20213;-68
2023/10/29 12:17:59;;;;;;;1999.90;999.90;;;;;;;;;;4925792;29;20254;-66
2023/10/29 12:20:44;;;;;;;1999.90;999.90;;;;;;;;;;4927858;29;20633;-69
2023/10/29 12:23:29;;;;;;;1999.90;999.90;;;;;;;;;;4919715;29;20226;-68
2023/10/29 12:26:16;;;;;;;1999.90;999.90;;;;;;;;;;4918294;29;20232;-68
2023/10/29 12:29:01;;;;;;;1999.90;999.90;;;;;;;;;;4917455;29;20584;-67
2023/10/29 12:31:46;;;;;;;1999.90;999.90;;;;;;;;;;4920173;29;20366;-67
2023/10/29 12:34:45;;;;;;;1999.90;999.90;;;;;;;;;;4917975;29;20214;-66
2023/10/29 12:37:31;;;;;;;1999.90;999.90;;;;;;;;;;4919154;29;20225;-68
2023/10/29 12:40:16;;;;;;;1999.90;999.90;;;;;;;;;;4923015;29;20245;-67
2023/10/29 12:43:02;;;;;;;1999.90;999.90;;;;;;;;;;4920358;29;20595;-67
2023/10/29 12:45:47;;;;;;;1999.90;999.90;;;;;;;;;;4923625;29;20221;-67
2023/10/29 12:48:32;;;;;;;1999.90;999.90;;;;;;;;;;4917523;29;20226;-67
2023/10/29 12:51:22;;;;;;;1999.90;999.90;;;;;;;;;;4916174;29;20237;-66
2023/10/29 12:54:11;;;;;;;1999.90;999.90;;;;;;;;;;4921962;29;20212;-67
2023/10/29 12:56:58;;;;;;;1999.90;999.90;;;;;;;;;;4918740;29;20242;-66
2023/10/29 12:59:46;;;;;;;1999.90;999.90;;;;;;;;;;4925912;29;20349;-67
2023/10/29 13:02:31;;;;;;;1999.90;999.90;;;;;;;;;;4930844;29;20217;-67
2023/10/29 13:05:16;;;;;;;1999.90;999.90;;;;;;;;;;4932425;29;20257;-67
2023/10/29 13:08:03;;;;;;;1999.90;999.90;;;;;;;;;;4925727;29;20758;-67
2023/10/29 13:10:47;;;;;;;1999.90;999.90;;;;;;;;;;4926061;29;20593;-68
2023/10/29 13:13:32;;;;;;;1999.90;999.90;;;;;;;;;;4923023;29;20217;-67
2023/10/29 13:16:18;;;;;;;1999.90;999.90;;;;;;;;;;4919439;29;20218;-67
2023/10/29 13:19:03;;;;;;;1999.90;999.90;;;;;;;;;;4916600;29;20265;-67
2023/10/29 13:21:50;;;;;;;1999.90;999.90;;;;;;;;;;4921575;29;20244;-68
2023/10/29 13:24:35;;;;;;;1999.90;999.90;;;;;;;;;;4922225;29;20288;-67
2023/10/29 13:27:20;;;;;;;1999.90;999.90;;;;;;;;;;4919139;29;20206;-67
2023/10/29 13:30:07;;;;;;;1999.90;999.90;;;;;;;;;;4922135;29;20228;-66
2023/10/29 13:32:54;;;;;;;1999.90;999.90;;;;;;;;;;4921223;29;20717;-68
2023/10/29 13:35:39;;;;;;;1999.90;999.90;;;;;;;;;;4920414;29;20241;-68
2023/10/29 13:38:25;;;;;;;1999.90;999.90;;;;;;;;;;4916436;29;20217;-66
2023/10/29 13:41:11;;;;;;;1999.90;999.90;;;;;;;;;;4918615;29;21631;-67
2023/10/29 13:43:57;;;;;;;1999.90;999.90;;;;;;;;;;4920908;29;20217;-66
2023/10/29 13:46:42;;;;;;;1999.90;999.90;;;;;;;;;;4916817;29;20583;-67
2023/10/29 13:49:29;;;;;;;1999.90;999.90;;;;;;;;;;4919229;29;20226;-66
2023/10/29 13:52:14;;;;;;;1999.90;999.90;;;;;;;;;;4923471;29;20210;-68
2023/10/29 13:54:59;;;;;;;1999.90;999.90;;;;;;;;;;4920534;29;20321;-67
2023/10/29 13:57:44;;;;;;;1999.90;999.90;;;;;;;;;;4925457;29;20723;-68
2023/10/29 14:00:29;;;;;;;1999.90;999.90;;;;;;;;;;4917368;29;20357;-67
2023/10/29 14:03:14;;;;;;;1999.90;999.90;;;;;;;;;;4919456;29;20602;-67
2023/10/29 14:06:04;;;;;;;1999.90;999.90;;;;;;;;;;4921136;29;20721;-67
2023/10/29 14:08:49;;;;;;;1999.90;999.90;;;;;;;;;;4920968;29;20722;-67
2023/10/29 14:11:34;;;;;;;1999.90;999.90;;;;;;;;;;4922084;29;20229;-66
2023/10/29 14:14:20;;;;;;;1999.90;999.90;;;;;;;;;;4917304;29;20222;-67
2023/10/29 14:17:06;;;;;;;1999.90;999.90;;;;;;;;;;4915742;29;20229;-65
2023/10/29 14:19:51;;;;;;;1999.90;999.90;;;;;;;;;;4924207;29;20792;-68
2023/10/29 14:22:37;;;;;;;1999.90;999.90;;;;;;;;;;4914664;29;20222;-67
2023/10/29 14:25:22;;;;;;;1999.90;999.90;;;;;;;;;;4928217;29;20932;-67
2023/10/29 14:28:07;;;;;;;1999.90;999.90;;;;;;;;;;4917491;29;20587;-65
2023/10/29 14:30:52;;;;;;;1999.90;999.90;;;;;;;;;;4915382;29;20798;-67
2023/10/29 14:33:37;;;;;;;1999.90;999.90;;;;;;;;;;4920611;29;20309;-66
2023/10/29 14:36:23;;;;;;;1999.90;999.90;;;;;;;;;;4914510;29;20774;-64
2023/10/29 14:39:09;;;;;;;1999.90;999.90;;;;;;;;;;4922162;29;20213;-66
2023/10/29 14:41:54;;;;;;;1999.90;999.90;;;;;;;;;;4921416;29;20344;-67
2023/10/29 14:44:38;;;;;;;1999.90;999.90;;;;;;;;;;4921000;29;20224;-66
2023/10/29 14:47:23;;;;;;;1999.90;999.90;;;;;;;;;;4914342;29;20265;-67
2023/10/29 14:50:09;;;;;;;1999.90;999.90;;;;;;;;;;4919408;29;20745;-65
2023/10/29 14:52:55;;;;;;;1999.90;999.90;;;;;;;;;;4918066;29;20326;-66
2023/10/29 14:55:46;;;;;;;1999.90;999.90;;;;;;;;;;4922835;29;20596;-67
2023/10/29 14:58:31;;;;;;;1999.90;999.90;;;;;;;;;;4922988;29;20213;-65
2023/10/29 15:01:16;;;;;;;1999.90;999.90;;;;;;;;;;4921792;29;20245;-65
2023/10/29 15:04:01;;;;;;;1999.90;999.90;;;;;;;;;;4926680;29;20229;-66
2023/10/29 15:06:45;;;;;;;1999.90;999.90;;;;;;;;;;4920924;29;20221;-66
2023/10/29 15:09:30;;;;;;;1999.90;999.90;;;;;;;;;;4917259;29;20237;-66
2023/10/29 15:12:16;;;;;;;1999.90;999.90;;;;;;;;;;4926730;29;20220;-66
2023/10/29 15:15:01;;;;;;;1999.90;999.90;;;;;;;;;;4925184;29;20224;-65
2023/10/29 15:17:46;;;;;;;1999.90;999.90;;;;;;;;;;4917527;29;20309;-67
2023/10/29 15:20:32;;;;;;;1999.90;999.90;;;;;;;;;;4928625;29;20426;-64
2023/10/29 15:23:17;;;;;;;1999.90;999.90;;;;;;;;;;4917591;29;20223;-66
2023/10/29 15:26:02;;;;;;;1999.90;999.90;;;;;;;;;;4925533;29;20231;-65
2023/10/29 15:28:49;;;;;;;1999.90;999.90;;;;;;;;;;4920890;29;20207;-66
2023/10/29 15:31:34;;;;;;;1999.90;999.90;;;;;;;;;;4916939;29;20338;-64
2023/10/29 15:34:19;;;;;;;1999.90;999.90;;;;;;;;;;4923936;29;20957;-67
2023/10/29 15:37:05;;;;;;;1999.90;999.90;;;;;;;;;;4921415;29;20267;-66
2023/10/29 15:39:50;;;;;;;1999.90;999.90;;;;;;;;;;4916142;29;20356;-66
2023/10/29 15:42:35;;;;;;;1999.90;999.90;;;;;;;;;;4924416;29;20526;-66
2023/10/29 15:45:21;;;;;;;1999.90;999.90;;;;;;;;;;4921117;29;20343;-67
2023/10/29 15:48:06;;;;;;;1999.90;999.90;;;;;;;;;;4926387;29;20231;-67
2023/10/29 15:50:51;;;;;;;1999.90;999.90;;;;;;;;;;4928108;29;20240;-65
2023/10/29 15:53:36;;;;;;;1999.90;999.90;;;;;;;;;;4932493;29;20236;-66
2023/10/29 15:56:21;;;;;;;1999.90;999.90;;;;;;;;;;4909671;29;20612;-65
2023/10/29 15:59:07;;;;;;;1999.90;999.90;;;;;;;;;;4932395;29;20223;-65
2023/10/29 16:01:53;;;;;;;1999.90;999.90;;;;;;;;;;4916872;29;20220;-66
2023/10/29 16:04:38;;;;;;;1999.90;999.90;;;;;;;;;;4913866;29;20241;-67
2023/10/29 16:07:23;;;;;;;1999.90;999.90;;;;;;;;;;4920435;29;20228;-69
2023/10/29 16:10:08;;;;;;;1999.90;999.90;;;;;;;;;;4925390;29;20245;-67
2023/10/29 16:12:54;;;;;;;1999.90;999.90;;;;;;;;;;4928932;29;20346;-67
2023/10/29 16:15:39;;;;;;;1999.90;999.90;;;;;;;;;;4925627;29;20208;-68
2023/10/29 16:18:25;;;;;;;1999.90;999.90;;;;;;;;;;4922389;29;20240;-67
2023/10/29 16:21:10;;;;;;;1999.90;999.90;;;;;;;;;;4919028;29;20235;-68
2023/10/29 16:23:55;;;;;;;1999.90;999.90;;;;;;;;;;4905537;29;20593;-68
2023/10/29 16:26:41;;;;;;;1999.90;999.90;;;;;;;;;;4913406;29;20308;-68
2023/10/29 16:29:26;;;;;;;1999.90;999.90;;;;;;;;;;4920717;29;20213;-70
2023/10/29 16:32:11;;;;;;;1999.90;999.90;;;;;;;;;;4931687;29;20590;-71
2023/10/29 16:34:57;;;;;;;1999.90;999.90;;;;;;;;;;4932689;29;20700;-70
2023/10/29 16:37:42;;;;;;;1999.90;999.90;;;;;;;;;;4921279;29;20655;-70
2023/10/29 16:40:27;;;;;;;1999.90;999.90;;;;;;;;;;4918304;29;20316;-70
2023/10/29 16:43:12;;;;;;;1999.90;999.90;;;;;;;;;;4918694;29;20341;-68
2023/10/29 16:45:57;;;;;;;1999.90;999.90;;;;;;;;;;4917726;29;20321;-70
2023/10/29 16:48:42;;;;;;;1999.90;999.90;;;;;;;;;;4918419;29;20668;-70
2023/10/29 16:51:28;;;;;;;1999.90;999.90;;;;;;;;;;4918517;29;20793;-69
2023/10/29 16:54:13;;;;;;;1999.90;999.90;;;;;;;;;;4918496;29;20209;-68
2023/10/29 16:56:58;;;;;;;1999.90;999.90;;;;;;;;;;4918390;29;20275;-70
2023/10/29 16:59:43;;;;;;;1999.90;999.90;;;;;;;;;;4917485;29;20209;-70
2023/10/29 17:02:28;;;;;;;1999.90;999.90;;;;;;;;;;4917566;29;20414;-70
2023/10/29 17:05:13;;;;;;;1999.90;999.90;;;;;;;;;;4918240;29;20221;-70
2023/10/29 17:07:59;;;;;;;1999.90;999.90;;;;;;;;;;4918287;29;20265;-70
2023/10/29 17:10:45;;;;;;;1999.90;999.90;;;;;;;;;;4917952;29;20240;-70
2023/10/29 17:13:30;;;;;;;1999.90;999.90;;;;;;;;;;4918182;29;20230;-71
2023/10/29 17:16:15;;;;;;;1999.90;999.90;;;;;;;;;;4918077;29;20220;-70
2023/10/29 17:19:00;;;;;;;1999.90;999.90;;;;;;;;;;4917545;29;20232;-70
2023/10/29 17:21:45;;;;;;;1999.90;999.90;;;;;;;;;;4917935;29;20353;-70
2023/10/29 17:24:31;;;;;;;1999.90;999.90;;;;;;;;;;4918052;29;20288;-70
2023/10/29 17:27:16;;;;;;;1999.90;999.90;;;;;;;;;;4917954;29;20293;-70
2023/10/29 17:30:03;;;;;;;1999.90;999.90;;;;;;;;;;4917664;29;20601;-70
2023/10/29 17:32:49;;;;;;;1999.90;999.90;;;;;;;;;;4917781;29;20213;-70
2023/10/29 17:35:35;;;;;;;1999.90;999.90;;;;;;;;;;4918521;29;20245;-69
2023/10/29 17:38:19;;;;;;;1999.90;999.90;;;;;;;;;;4918904;29;20313;-69
2023/10/29 17:41:13;;;;;;;1999.90;999.90;;;;;;;;;;4918625;29;20239;-69
2023/10/29 17:43:58;;;;;;;1999.90;999.90;;;;;;;;;;4918355;29;20712;-69
2023/10/29 17:46:43;;;;;;;1999.90;999.90;;;;;;;;;;4917625;29;20232;-69
2023/10/29 17:49:27;;;;;;;1999.90;999.90;;;;;;;;;;4917342;29;20577;-69
2023/10/29 17:52:13;;;;;;;1999.90;999.90;;;;;;;;;;4917196;29;20748;-69
2023/10/29 17:54:58;;;;;;;1999.90;999.90;;;;;;;;;;4917461;29;20262;-69
2023/10/29 17:57:44;;;;;;;1999.90;999.90;;;;;;;;;;4917337;29;20248;-69
2023/10/29 18:00:29;;;;;;;1999.90;999.90;;;;;;;;;;4915867;29;20499;-69
2023/10/29 18:03:14;;;;;;;1999.90;999.90;;;;;;;;;;4917298;29;20220;-69
2023/10/29 18:06:10;;;;;;;1999.90;999.90;;;;;;;;;;4917257;29;20597;-69